sensor_id;sensor_type;location;lat;lon;timestamp;pressure;altitude;pressure_sealevel;temperature;humidity
37078;BME280;22989;55.998;37.212;2023-04-22T00:02:07;-11298.94;;;-145.39;37.95
37078;BME280;22989;55.998;37.212;2023-04-22T00:04:32;-11298.94;;;-145.39;37.99
37078;BME280;22989;55.998;37.212;2023-04-22T00:06:58;-11298.94;;;-145.39;38.34
37078;BME280;22989;55.998;37.212;2023-04-22T00:09:24;-11298.94;;;-145.39;38.39
37078;BME280;22989;55.998;37.212;2023-04-22T00:11:50;-11298.94;;;-145.39;38.67
37078;BME280;22989;55.998;37.212;2023-04-22T00:14:15;-11298.94;;;-145.39;38.69
37078;BME280;22989;55.998;37.212;2023-04-22T00:16:40;-11298.94;;;-145.39;38.91
37078;BME280;22989;55.998;37.212;2023-04-22T00:19:06;-11298.94;;;-145.39;39.05
37078;BME280;22989;55.998;37.212;2023-04-22T00:21:31;-11298.94;;;-145.39;39.24
37078;BME280;22989;55.998;37.212;2023-04-22T00:23:57;-11298.94;;;-145.39;39.46
37078;BME280;22989;55.998;37.212;2023-04-22T00:26:23;-11298.94;;;-145.39;39.63
37078;BME280;22989;55.998;37.212;2023-04-22T00:28:48;-11298.94;;;-145.39;39.69
37078;BME280;22989;55.998;37.212;2023-04-22T00:31:14;-11298.94;;;-145.39;39.66
37078;BME280;22989;55.998;37.212;2023-04-22T00:33:39;-11298.94;;;-145.39;39.41
37078;BME280;22989;55.998;37.212;2023-04-22T00:36:05;-11298.94;;;-145.39;39.63
37078;BME280;22989;55.998;37.212;2023-04-22T00:38:30;-11298.94;;;-145.39;39.79
37078;BME280;22989;55.998;37.212;2023-04-22T00:40:56;-11298.94;;;-145.39;40.15
37078;BME280;22989;55.998;37.212;2023-04-22T00:43:21;-11298.94;;;-145.39;40.11
37078;BME280;22989;55.998;37.212;2023-04-22T00:45:48;-11298.94;;;-145.39;40.42
37078;BME280;22989;55.998;37.212;2023-04-22T00:48:13;-11298.94;;;-145.39;40.43
37078;BME280;22989;55.998;37.212;2023-04-22T00:50:39;-11298.94;;;-145.39;40.74
37078;BME280;22989;55.998;37.212;2023-04-22T00:53:05;-11298.94;;;-145.39;41.09
37078;BME280;22989;55.998;37.212;2023-04-22T00:55:31;-11298.94;;;-145.39;41.01
37078;BME280;22989;55.998;37.212;2023-04-22T00:57:56;-11298.94;;;-145.39;41.11
37078;BME280;22989;55.998;37.212;2023-04-22T01:00:22;-11298.94;;;-145.39;41.25
37078;BME280;22989;55.998;37.212;2023-04-22T01:02:54;-11298.94;;;-145.39;41.37
37078;BME280;22989;55.998;37.212;2023-04-22T01:05:20;-11298.94;;;-145.39;41.45
37078;BME280;22989;55.998;37.212;2023-04-22T01:07:46;-11298.94;;;-145.39;41.72
37078;BME280;22989;55.998;37.212;2023-04-22T01:10:11;-11298.94;;;-145.39;41.82
37078;BME280;22989;55.998;37.212;2023-04-22T01:12:37;-11298.94;;;-145.39;41.90
37078;BME280;22989;55.998;37.212;2023-04-22T01:15:03;-11298.94;;;-145.39;41.91
37078;BME280;22989;55.998;37.212;2023-04-22T01:17:28;-11298.94;;;-145.39;41.97
37078;BME280;22989;55.998;37.212;2023-04-22T01:19:56;-11298.94;;;-145.39;41.89
37078;BME280;22989;55.998;37.212;2023-04-22T01:22:22;-11298.94;;;-145.39;42.03
37078;BME280;22989;55.998;37.212;2023-04-22T01:24:50;-11298.94;;;-145.39;41.71
37078;BME280;22989;55.998;37.212;2023-04-22T01:27:16;-11298.94;;;-145.39;41.48
37078;BME280;22989;55.998;37.212;2023-04-22T01:29:41;-11298.94;;;-145.39;41.16
37078;BME280;22989;55.998;37.212;2023-04-22T01:32:07;-11298.94;;;-145.39;41.37
37078;BME280;22989;55.998;37.212;2023-04-22T01:34:32;-11298.94;;;-145.39;41.55
37078;BME280;22989;55.998;37.212;2023-04-22T01:36:58;-11298.94;;;-145.39;41.66
37078;BME280;22989;55.998;37.212;2023-04-22T01:39:23;-11298.94;;;-145.39;41.66
37078;BME280;22989;55.998;37.212;2023-04-22T01:41:49;-11298.94;;;-145.39;41.91
37078;BME280;22989;55.998;37.212;2023-04-22T01:44:15;-11298.94;;;-145.39;42.00
37078;BME280;22989;55.998;37.212;2023-04-22T01:46:40;-11298.94;;;-145.39;42.08
37078;BME280;22989;55.998;37.212;2023-04-22T01:49:06;-11298.94;;;-145.39;42.30
37078;BME280;22989;55.998;37.212;2023-04-22T01:51:31;-11298.94;;;-145.39;42.29
37078;BME280;22989;55.998;37.212;2023-04-22T01:53:57;-11298.94;;;-145.39;42.39
37078;BME280;22989;55.998;37.212;2023-04-22T01:56:22;-11298.94;;;-145.39;42.50
37078;BME280;22989;55.998;37.212;2023-04-22T01:58:48;-11298.94;;;-145.39;42.57
37078;BME280;22989;55.998;37.212;2023-04-22T02:01:13;-11298.94;;;-145.39;42.47
37078;BME280;22989;55.998;37.212;2023-04-22T02:03:39;-11298.94;;;-145.39;42.62
37078;BME280;22989;55.998;37.212;2023-04-22T02:06:04;-11298.94;;;-145.39;42.79
37078;BME280;22989;55.998;37.212;2023-04-22T02:08:30;-11298.94;;;-145.39;42.95
37078;BME280;22989;55.998;37.212;2023-04-22T02:10:56;-11298.94;;;-145.39;43.11
37078;BME280;22989;55.998;37.212;2023-04-22T02:13:23;-11298.94;;;-145.39;43.22
37078;BME280;22989;55.998;37.212;2023-04-22T02:15:48;-11298.94;;;-145.39;43.24
37078;BME280;22989;55.998;37.212;2023-04-22T02:18:14;-11298.94;;;-145.39;43.32
37078;BME280;22989;55.998;37.212;2023-04-22T02:20:42;-11298.94;;;-145.39;43.17
37078;BME280;22989;55.998;37.212;2023-04-22T02:23:07;-11298.94;;;-145.39;43.00
37078;BME280;22989;55.998;37.212;2023-04-22T02:25:33;-11298.94;;;-145.39;43.22
37078;BME280;22989;55.998;37.212;2023-04-22T02:27:58;-11298.94;;;-145.39;43.16
37078;BME280;22989;55.998;37.212;2023-04-22T02:30:24;-11298.94;;;-145.39;43.29
37078;BME280;22989;55.998;37.212;2023-04-22T02:32:49;-11298.94;;;-145.39;43.37
37078;BME280;22989;55.998;37.212;2023-04-22T02:35:15;-11298.94;;;-145.39;43.53
37078;BME280;22989;55.998;37.212;2023-04-22T02:37:40;-11298.94;;;-145.39;43.58
37078;BME280;22989;55.998;37.212;2023-04-22T02:40:06;-11298.94;;;-145.39;43.43
37078;BME280;22989;55.998;37.212;2023-04-22T02:42:32;-11298.94;;;-145.39;43.43
37078;BME280;22989;55.998;37.212;2023-04-22T02:44:57;-11298.94;;;-145.39;43.44
37078;BME280;22989;55.998;37.212;2023-04-22T02:47:23;-11298.94;;;-145.39;43.39
37078;BME280;22989;55.998;37.212;2023-04-22T02:49:48;-11298.94;;;-145.39;43.36
37078;BME280;22989;55.998;37.212;2023-04-22T02:52:13;-11298.94;;;-145.39;43.31
37078;BME280;22989;55.998;37.212;2023-04-22T02:54:39;-11298.94;;;-145.39;43.17
37078;BME280;22989;55.998;37.212;2023-04-22T02:57:04;-11298.94;;;-145.39;43.19
37078;BME280;22989;55.998;37.212;2023-04-22T02:59:30;-11298.94;;;-145.39;43.21
37078;BME280;22989;55.998;37.212;2023-04-22T03:01:57;-11298.94;;;-145.39;43.14
37078;BME280;22989;55.998;37.212;2023-04-22T03:04:42;-11298.94;;;-145.39;43.36
37078;BME280;22989;55.998;37.212;2023-04-22T03:07:07;-11298.94;;;-145.39;42.70
37078;BME280;22989;55.998;37.212;2023-04-22T03:09:33;-11298.94;;;-145.39;39.83
37078;BME280;22989;55.998;37.212;2023-04-22T03:11:58;-11298.94;;;-145.39;36.02
37078;BME280;22989;55.998;37.212;2023-04-22T03:14:25;-11298.94;;;-145.39;33.98
37078;BME280;22989;55.998;37.212;2023-04-22T03:16:52;-11298.94;;;-145.39;33.19
37078;BME280;22989;55.998;37.212;2023-04-22T03:19:17;-11298.94;;;-145.39;31.70
37078;BME280;22989;55.998;37.212;2023-04-22T03:21:43;-11298.94;;;-145.39;29.68
37078;BME280;22989;55.998;37.212;2023-04-22T03:24:08;-11298.94;;;-145.39;28.89
37078;BME280;22989;55.998;37.212;2023-04-22T03:26:34;-11298.94;;;-145.39;28.80
37078;BME280;22989;55.998;37.212;2023-04-22T03:28:59;-11298.94;;;-145.39;27.58
37078;BME280;22989;55.998;37.212;2023-04-22T03:31:25;-11298.94;;;-145.39;27.73
37078;BME280;22989;55.998;37.212;2023-04-22T03:33:51;-11298.94;;;-145.39;27.65
37078;BME280;22989;55.998;37.212;2023-04-22T03:36:23;-11298.94;;;-145.39;26.89
37078;BME280;22989;55.998;37.212;2023-04-22T03:38:49;-11298.94;;;-145.39;26.63
37078;BME280;22989;55.998;37.212;2023-04-22T03:41:15;-11298.94;;;-145.39;25.29
37078;BME280;22989;55.998;37.212;2023-04-22T03:43:45;-11298.94;;;-145.39;25.66
37078;BME280;22989;55.998;37.212;2023-04-22T03:46:10;-11298.94;;;-145.39;25.48
37078;BME280;22989;55.998;37.212;2023-04-22T03:48:43;-11298.94;;;-145.39;24.66
37078;BME280;22989;55.998;37.212;2023-04-22T03:51:16;-11298.94;;;-145.39;24.15
37078;BME280;22989;55.998;37.212;2023-04-22T03:53:41;-11298.94;;;-145.39;24.34
37078;BME280;22989;55.998;37.212;2023-04-22T03:56:11;-11298.94;;;-145.39;23.68
37078;BME280;22989;55.998;37.212;2023-04-22T03:58:42;-11298.94;;;-145.39;22.98
37078;BME280;22989;55.998;37.212;2023-04-22T04:01:08;-11298.94;;;-145.39;22.50
37078;BME280;22989;55.998;37.212;2023-04-22T04:03:35;-11298.94;;;-145.39;22.79
37078;BME280;22989;55.998;37.212;2023-04-22T04:06:01;-11298.94;;;-145.39;21.94
37078;BME280;22989;55.998;37.212;2023-04-22T04:08:27;-11298.94;;;-145.39;22.20
37078;BME280;22989;55.998;37.212;2023-04-22T04:10:52;-11298.94;;;-145.39;22.08
37078;BME280;22989;55.998;37.212;2023-04-22T04:13:18;-11298.94;;;-145.39;22.37
37078;BME280;22989;55.998;37.212;2023-04-22T04:16:09;-11298.94;;;-145.39;22.20
37078;BME280;22989;55.998;37.212;2023-04-22T04:18:37;-11298.94;;;-145.39;21.64
37078;BME280;22989;55.998;37.212;2023-04-22T04:21:03;-11298.94;;;-145.39;21.76
37078;BME280;22989;55.998;37.212;2023-04-22T04:23:31;-11298.94;;;-145.39;22.02
37078;BME280;22989;55.998;37.212;2023-04-22T04:25:58;-11298.94;;;-145.39;22.55
37078;BME280;22989;55.998;37.212;2023-04-22T04:28:27;-11298.94;;;-145.39;22.95
37078;BME280;22989;55.998;37.212;2023-04-22T04:31:00;-11298.94;;;-145.39;22.29
37078;BME280;22989;55.998;37.212;2023-04-22T04:33:27;-11298.94;;;-145.39;21.85
37078;BME280;22989;55.998;37.212;2023-04-22T04:35:54;-11298.94;;;-145.39;22.08
37078;BME280;22989;55.998;37.212;2023-04-22T04:38:25;-11298.94;;;-145.39;22.89
37078;BME280;22989;55.998;37.212;2023-04-22T04:40:51;-11298.94;;;-145.39;22.30
37078;BME280;22989;55.998;37.212;2023-04-22T04:43:22;-11298.94;;;-145.39;21.52
37078;BME280;22989;55.998;37.212;2023-04-22T04:45:56;-11298.94;;;-145.39;21.14
37078;BME280;22989;55.998;37.212;2023-04-22T04:48:29;-11298.94;;;-145.39;21.10
37078;BME280;22989;55.998;37.212;2023-04-22T04:51:04;-11298.94;;;-145.39;20.56
37078;BME280;22989;55.998;37.212;2023-04-22T04:53:34;-11298.94;;;-145.39;20.25
37078;BME280;22989;55.998;37.212;2023-04-22T04:56:00;-11298.94;;;-145.39;20.28
37078;BME280;22989;55.998;37.212;2023-04-22T04:58:27;-11298.94;;;-145.39;20.72
37078;BME280;22989;55.998;37.212;2023-04-22T05:01:15;-11298.94;;;-145.39;20.67
37078;BME280;22989;55.998;37.212;2023-04-22T05:03:42;-11298.94;;;-145.39;20.11
37078;BME280;22989;55.998;37.212;2023-04-22T05:06:08;-11298.94;;;-145.39;19.66
37078;BME280;22989;55.998;37.212;2023-04-22T05:08:37;-11298.94;;;-145.39;20.76
37078;BME280;22989;55.998;37.212;2023-04-22T05:11:07;-11298.94;;;-145.39;21.50
37078;BME280;22989;55.998;37.212;2023-04-22T05:13:32;-11298.94;;;-145.39;20.81
37078;BME280;22989;55.998;37.212;2023-04-22T05:15:58;-11298.94;;;-145.39;19.91
37078;BME280;22989;55.998;37.212;2023-04-22T05:18:24;-11298.94;;;-145.39;19.44
37078;BME280;22989;55.998;37.212;2023-04-22T05:20:51;-11298.94;;;-145.39;19.74
37078;BME280;22989;55.998;37.212;2023-04-22T05:23:18;-11298.94;;;-145.39;18.82
37078;BME280;22989;55.998;37.212;2023-04-22T05:25:44;-11298.94;;;-145.39;18.59
37078;BME280;22989;55.998;37.212;2023-04-22T05:28:12;-11298.94;;;-145.39;18.53
37078;BME280;22989;55.998;37.212;2023-04-22T05:30:44;-11298.94;;;-145.39;18.46
37078;BME280;22989;55.998;37.212;2023-04-22T05:33:10;-11298.94;;;-145.39;19.53
37078;BME280;22989;55.998;37.212;2023-04-22T05:35:35;-11298.94;;;-145.39;19.77
37078;BME280;22989;55.998;37.212;2023-04-22T05:38:01;-11298.94;;;-145.39;19.79
37078;BME280;22989;55.998;37.212;2023-04-22T05:40:28;-11298.94;;;-145.39;20.28
37078;BME280;22989;55.998;37.212;2023-04-22T05:42:55;-11298.94;;;-145.39;20.37
37078;BME280;22989;55.998;37.212;2023-04-22T05:45:21;-11298.94;;;-145.39;20.16
37078;BME280;22989;55.998;37.212;2023-04-22T05:47:47;-11298.94;;;-145.39;20.01
37078;BME280;22989;55.998;37.212;2023-04-22T05:50:14;-11298.94;;;-145.39;20.04
37078;BME280;22989;55.998;37.212;2023-04-22T05:52:49;-11298.94;;;-145.39;20.39
37078;BME280;22989;55.998;37.212;2023-04-22T05:55:16;-11298.94;;;-145.39;19.66
37078;BME280;22989;55.998;37.212;2023-04-22T05:57:43;-11298.94;;;-145.39;19.49
37078;BME280;22989;55.998;37.212;2023-04-22T06:00:27;-11298.94;;;-145.39;19.71
37078;BME280;22989;55.998;37.212;2023-04-22T06:03:08;-11298.94;;;-145.39;19.96
37078;BME280;22989;55.998;37.212;2023-04-22T06:05:34;-11298.94;;;-145.39;20.31
37078;BME280;22989;55.998;37.212;2023-04-22T06:07:59;-11298.94;;;-145.39;19.74
37078;BME280;22989;55.998;37.212;2023-04-22T06:10:28;-11298.94;;;-145.39;20.05
37078;BME280;22989;55.998;37.212;2023-04-22T06:12:53;-11298.94;;;-145.39;19.94
37078;BME280;22989;55.998;37.212;2023-04-22T06:15:19;-11298.94;;;-145.39;20.45
37078;BME280;22989;55.998;37.212;2023-04-22T06:17:47;-11298.94;;;-145.39;20.92
37078;BME280;22989;55.998;37.212;2023-04-22T06:20:12;-11298.94;;;-145.39;21.08
37078;BME280;22989;55.998;37.212;2023-04-22T06:22:38;-11298.94;;;-145.39;21.30
37078;BME280;22989;55.998;37.212;2023-04-22T06:25:03;-11298.94;;;-145.39;21.14
37078;BME280;22989;55.998;37.212;2023-04-22T06:27:30;-11298.94;;;-145.39;21.02
37078;BME280;22989;55.998;37.212;2023-04-22T06:29:55;-11298.94;;;-145.39;20.32
37078;BME280;22989;55.998;37.212;2023-04-22T06:32:21;-11298.94;;;-145.39;19.80
37078;BME280;22989;55.998;37.212;2023-04-22T06:34:46;-11298.94;;;-145.39;19.92
37078;BME280;22989;55.998;37.212;2023-04-22T06:37:12;-11298.94;;;-145.39;20.38
37078;BME280;22989;55.998;37.212;2023-04-22T06:39:37;-11298.94;;;-145.39;20.34
37078;BME280;22989;55.998;37.212;2023-04-22T06:42:22;-11298.94;;;-145.39;20.25
37078;BME280;22989;55.998;37.212;2023-04-22T06:45:06;-11298.94;;;-145.39;20.37
37078;BME280;22989;55.998;37.212;2023-04-22T06:47:42;-11298.94;;;-145.39;20.58
37078;BME280;22989;55.998;37.212;2023-04-22T06:50:11;-11298.94;;;-145.39;20.29
37078;BME280;22989;55.998;37.212;2023-04-22T06:52:48;-11298.94;;;-145.39;20.03
37078;BME280;22989;55.998;37.212;2023-04-22T06:55:13;-11298.94;;;-145.39;20.21
37078;BME280;22989;55.998;37.212;2023-04-22T06:57:39;-11298.94;;;-145.39;20.94
37078;BME280;22989;55.998;37.212;2023-04-22T07:00:05;-11298.94;;;-145.39;21.77
37078;BME280;22989;55.998;37.212;2023-04-22T07:02:36;-11298.94;;;-145.39;21.77
37078;BME280;22989;55.998;37.212;2023-04-22T07:05:01;-11298.94;;;-145.39;21.56
37078;BME280;22989;55.998;37.212;2023-04-22T07:07:27;-11298.94;;;-145.39;20.72
37078;BME280;22989;55.998;37.212;2023-04-22T07:09:53;-11298.94;;;-145.39;20.53
37078;BME280;22989;55.998;37.212;2023-04-22T07:12:18;-11298.94;;;-145.39;20.47
37078;BME280;22989;55.998;37.212;2023-04-22T07:14:44;-11298.94;;;-145.39;20.37
37078;BME280;22989;55.998;37.212;2023-04-22T07:17:10;-11298.94;;;-145.39;20.23
37078;BME280;22989;55.998;37.212;2023-04-22T07:19:36;-11298.94;;;-145.39;20.22
37078;BME280;22989;55.998;37.212;2023-04-22T07:22:02;-11298.94;;;-145.39;21.04
37078;BME280;22989;55.998;37.212;2023-04-22T07:24:28;-11298.94;;;-145.39;22.15
37078;BME280;22989;55.998;37.212;2023-04-22T07:26:53;-11298.94;;;-145.39;23.09
37078;BME280;22989;55.998;37.212;2023-04-22T07:29:19;-11298.94;;;-145.39;24.34
37078;BME280;22989;55.998;37.212;2023-04-22T07:31:44;-11298.94;;;-145.39;24.87
37078;BME280;22989;55.998;37.212;2023-04-22T07:34:10;-11298.94;;;-145.39;25.68
37078;BME280;22989;55.998;37.212;2023-04-22T07:36:35;-11298.94;;;-145.39;26.08
37078;BME280;22989;55.998;37.212;2023-04-22T07:39:01;-11298.94;;;-145.39;26.50
37078;BME280;22989;55.998;37.212;2023-04-22T07:41:26;-11298.94;;;-145.39;26.59
37078;BME280;22989;55.998;37.212;2023-04-22T07:43:52;-11298.94;;;-145.39;26.63
37078;BME280;22989;55.998;37.212;2023-04-22T07:46:18;-11298.94;;;-145.39;26.96
37078;BME280;22989;55.998;37.212;2023-04-22T07:48:43;-11298.94;;;-145.39;26.10
37078;BME280;22989;55.998;37.212;2023-04-22T07:51:09;-11298.94;;;-145.39;25.39
37078;BME280;22989;55.998;37.212;2023-04-22T07:53:34;-11298.94;;;-145.39;23.90
37078;BME280;22989;55.998;37.212;2023-04-22T07:56:03;-11298.94;;;-145.39;24.45
37078;BME280;22989;55.998;37.212;2023-04-22T07:58:28;-11298.94;;;-145.39;24.54
37078;BME280;22989;55.998;37.212;2023-04-22T08:00:54;-11298.94;;;-145.39;24.89
37078;BME280;22989;55.998;37.212;2023-04-22T08:03:19;-11298.94;;;-145.39;25.05
37078;BME280;22989;55.998;37.212;2023-04-22T08:05:45;-11298.94;;;-145.39;25.44
37078;BME280;22989;55.998;37.212;2023-04-22T08:08:10;-11298.94;;;-145.39;25.34
37078;BME280;22989;55.998;37.212;2023-04-22T08:10:36;-11298.94;;;-145.39;25.48
37078;BME280;22989;55.998;37.212;2023-04-22T08:13:01;-11298.94;;;-145.39;25.11
37078;BME280;22989;55.998;37.212;2023-04-22T08:15:27;-11298.94;;;-145.39;24.94
37078;BME280;22989;55.998;37.212;2023-04-22T08:17:52;-11298.94;;;-145.39;24.86
37078;BME280;22989;55.998;37.212;2023-04-22T08:20:18;-11298.94;;;-145.39;24.49
37078;BME280;22989;55.998;37.212;2023-04-22T08:22:43;-11298.94;;;-145.39;24.44
37078;BME280;22989;55.998;37.212;2023-04-22T08:25:09;-11298.94;;;-145.39;24.52
37078;BME280;22989;55.998;37.212;2023-04-22T08:27:35;-11298.94;;;-145.39;24.22
37078;BME280;22989;55.998;37.212;2023-04-22T08:30:00;-11298.94;;;-145.39;24.67
37078;BME280;22989;55.998;37.212;2023-04-22T08:32:26;-11298.94;;;-145.39;24.82
37078;BME280;22989;55.998;37.212;2023-04-22T08:34:52;-11298.94;;;-145.39;24.94
37078;BME280;22989;55.998;37.212;2023-04-22T08:37:17;-11298.94;;;-145.39;24.94
37078;BME280;22989;55.998;37.212;2023-04-22T08:39:43;-11298.94;;;-145.39;24.95
37078;BME280;22989;55.998;37.212;2023-04-22T08:42:08;-11298.94;;;-145.39;24.88
37078;BME280;22989;55.998;37.212;2023-04-22T08:44:34;-11298.94;;;-145.39;24.83
37078;BME280;22989;55.998;37.212;2023-04-22T08:47:00;-11298.94;;;-145.39;24.67
37078;BME280;22989;55.998;37.212;2023-04-22T08:49:25;-11298.94;;;-145.39;24.74
37078;BME280;22989;55.998;37.212;2023-04-22T08:51:51;-11298.94;;;-145.39;24.74
37078;BME280;22989;55.998;37.212;2023-04-22T08:54:17;-11298.94;;;-145.39;24.86
37078;BME280;22989;55.998;37.212;2023-04-22T08:56:43;-11298.94;;;-145.39;25.06
37078;BME280;22989;55.998;37.212;2023-04-22T08:59:12;-11298.94;;;-145.39;25.45
37078;BME280;22989;55.998;37.212;2023-04-22T09:01:38;-11298.94;;;-145.39;25.70
37078;BME280;22989;55.998;37.212;2023-04-22T09:04:05;-11298.94;;;-145.39;25.92
37078;BME280;22989;55.998;37.212;2023-04-22T09:06:31;-11298.94;;;-145.39;26.15
37078;BME280;22989;55.998;37.212;2023-04-22T09:08:56;-11298.94;;;-145.39;26.07
37078;BME280;22989;55.998;37.212;2023-04-22T09:11:25;-11298.94;;;-145.39;26.23
37078;BME280;22989;55.998;37.212;2023-04-22T09:13:51;-11298.94;;;-145.39;26.25
37078;BME280;22989;55.998;37.212;2023-04-22T09:16:17;-11298.94;;;-145.39;26.40
37078;BME280;22989;55.998;37.212;2023-04-22T09:18:42;-11298.94;;;-145.39;26.07
37078;BME280;22989;55.998;37.212;2023-04-22T09:21:10;-11298.94;;;-145.39;25.80
37078;BME280;22989;55.998;37.212;2023-04-22T09:23:43;-11298.94;;;-145.39;25.40
37078;BME280;22989;55.998;37.212;2023-04-22T09:26:09;-11298.94;;;-145.39;25.03
37078;BME280;22989;55.998;37.212;2023-04-22T09:28:35;-11298.94;;;-145.39;25.08
37078;BME280;22989;55.998;37.212;2023-04-22T09:31:01;-11298.94;;;-145.39;25.05
37078;BME280;22989;55.998;37.212;2023-04-22T09:33:27;-11298.94;;;-145.39;25.12
37078;BME280;22989;55.998;37.212;2023-04-22T09:35:52;-11298.94;;;-145.39;25.17
37078;BME280;22989;55.998;37.212;2023-04-22T09:38:18;-11298.94;;;-145.39;24.82
37078;BME280;22989;55.998;37.212;2023-04-22T09:40:44;-11298.94;;;-145.39;24.92
37078;BME280;22989;55.998;37.212;2023-04-22T09:43:10;-11298.94;;;-145.39;24.74
37078;BME280;22989;55.998;37.212;2023-04-22T09:45:37;-11298.94;;;-145.39;24.46
37078;BME280;22989;55.998;37.212;2023-04-22T09:48:18;-11298.94;;;-145.39;24.59
37078;BME280;22989;55.998;37.212;2023-04-22T09:50:48;-11298.94;;;-145.39;25.04
37078;BME280;22989;55.998;37.212;2023-04-22T09:53:16;-11298.94;;;-145.39;25.21
37078;BME280;22989;55.998;37.212;2023-04-22T09:55:43;-11298.94;;;-145.39;25.29
37078;BME280;22989;55.998;37.212;2023-04-22T09:58:09;-11298.94;;;-145.39;25.25
37078;BME280;22989;55.998;37.212;2023-04-22T10:00:38;-11298.94;;;-145.39;25.14
37078;BME280;22989;55.998;37.212;2023-04-22T10:03:04;-11298.94;;;-145.39;25.12
37078;BME280;22989;55.998;37.212;2023-04-22T10:05:31;-11298.94;;;-145.39;25.35
37078;BME280;22989;55.998;37.212;2023-04-22T10:07:57;-11298.94;;;-145.39;25.56
37078;BME280;22989;55.998;37.212;2023-04-22T10:10:23;-11298.94;;;-145.39;25.32
37078;BME280;22989;55.998;37.212;2023-04-22T10:12:48;-11298.94;;;-145.39;25.52
37078;BME280;22989;55.998;37.212;2023-04-22T10:15:14;-11298.94;;;-145.39;25.80
37078;BME280;22989;55.998;37.212;2023-04-22T10:17:39;-11298.94;;;-145.39;26.18
37078;BME280;22989;55.998;37.212;2023-04-22T10:20:09;-11298.94;;;-145.39;26.56
37078;BME280;22989;55.998;37.212;2023-04-22T10:22:38;-11298.94;;;-145.39;26.65
37078;BME280;22989;55.998;37.212;2023-04-22T10:25:04;-11298.94;;;-145.39;26.35
37078;BME280;22989;55.998;37.212;2023-04-22T10:27:30;-11298.94;;;-145.39;25.84
37078;BME280;22989;55.998;37.212;2023-04-22T10:29:55;-11298.94;;;-145.39;25.49
37078;BME280;22989;55.998;37.212;2023-04-22T10:32:22;-11298.94;;;-145.39;25.45
37078;BME280;22989;55.998;37.212;2023-04-22T10:34:49;-11298.94;;;-145.39;25.35
37078;BME280;22989;55.998;37.212;2023-04-22T10:37:18;-11298.94;;;-145.39;25.88
37078;BME280;22989;55.998;37.212;2023-04-22T10:40:04;-11298.94;;;-145.39;25.80
37078;BME280;22989;55.998;37.212;2023-04-22T10:42:29;-11298.94;;;-145.39;26.04
37078;BME280;22989;55.998;37.212;2023-04-22T10:44:59;-11298.94;;;-145.39;26.15
37078;BME280;22989;55.998;37.212;2023-04-22T10:47:43;-11298.94;;;-145.39;26.00
37078;BME280;22989;55.998;37.212;2023-04-22T10:52:34;-11298.94;;;-145.39;26.02
37078;BME280;22989;55.998;37.212;2023-04-22T10:55:00;-11298.94;;;-145.39;25.52
37078;BME280;22989;55.998;37.212;2023-04-22T10:57:29;-11298.94;;;-145.39;25.36
37078;BME280;22989;55.998;37.212;2023-04-22T11:00:14;-11298.94;;;-145.39;24.96
37078;BME280;22989;55.998;37.212;2023-04-22T11:02:41;-11298.94;;;-145.39;25.00
37078;BME280;22989;55.998;37.212;2023-04-22T11:05:16;-11298.94;;;-145.39;25.49
37078;BME280;22989;55.998;37.212;2023-04-22T11:07:42;-11298.94;;;-145.39;25.52
37078;BME280;22989;55.998;37.212;2023-04-22T11:10:08;-11298.94;;;-145.39;25.52
37078;BME280;22989;55.998;37.212;2023-04-22T11:15:12;-11298.94;;;-145.39;25.72
37078;BME280;22989;55.998;37.212;2023-04-22T11:17:38;-11298.94;;;-145.39;25.87
37078;BME280;22989;55.998;37.212;2023-04-22T11:20:04;-11298.94;;;-145.39;25.85
37078;BME280;22989;55.998;37.212;2023-04-22T11:22:37;-11298.94;;;-145.39;25.82
37078;BME280;22989;55.998;37.212;2023-04-22T11:25:03;-11298.94;;;-145.39;25.58
37078;BME280;22989;55.998;37.212;2023-04-22T11:27:29;-11298.94;;;-145.39;24.67
37078;BME280;22989;55.998;37.212;2023-04-22T11:32:42;-11298.94;;;-145.39;24.72
37078;BME280;22989;55.998;37.212;2023-04-22T11:35:09;-11298.94;;;-145.39;24.65
37078;BME280;22989;55.998;37.212;2023-04-22T11:40:33;-11298.94;;;-145.39;24.24
37078;BME280;22989;55.998;37.212;2023-04-22T11:42:59;-11298.94;;;-145.39;24.12
37078;BME280;22989;55.998;37.212;2023-04-22T11:45:25;-11298.94;;;-145.39;24.25
37078;BME280;22989;55.998;37.212;2023-04-22T11:47:51;-11298.94;;;-145.39;24.89
37078;BME280;22989;55.998;37.212;2023-04-22T11:50:17;-11298.94;;;-145.39;25.25
37078;BME280;22989;55.998;37.212;2023-04-22T11:53:03;-11298.94;;;-145.39;25.43
37078;BME280;22989;55.998;37.212;2023-04-22T11:55:30;-11298.94;;;-145.39;25.76
37078;BME280;22989;55.998;37.212;2023-04-22T11:57:59;-11298.94;;;-145.39;25.97
37078;BME280;22989;55.998;37.212;2023-04-22T12:00:29;-11298.94;;;-145.39;26.02
37078;BME280;22989;55.998;37.212;2023-04-22T12:02:59;-11298.94;;;-145.39;26.18
37078;BME280;22989;55.998;37.212;2023-04-22T12:05:38;-11298.94;;;-145.39;25.98
37078;BME280;22989;55.998;37.212;2023-04-22T12:08:08;-11298.94;;;-145.39;25.97
37078;BME280;22989;55.998;37.212;2023-04-22T12:10:38;-11298.94;;;-145.39;25.69
37078;BME280;22989;55.998;37.212;2023-04-22T12:13:04;-11298.94;;;-145.39;25.51
37078;BME280;22989;55.998;37.212;2023-04-22T12:15:36;-11298.94;;;-145.39;25.43
37078;BME280;22989;55.998;37.212;2023-04-22T12:18:02;-11298.94;;;-145.39;25.29
37078;BME280;22989;55.998;37.212;2023-04-22T12:20:31;-11298.94;;;-145.39;25.04
37078;BME280;22989;55.998;37.212;2023-04-22T12:22:58;-11298.94;;;-145.39;24.89
37078;BME280;22989;55.998;37.212;2023-04-22T12:25:24;-11298.94;;;-145.39;25.15
37078;BME280;22989;55.998;37.212;2023-04-22T12:27:51;-11298.94;;;-145.39;25.22
37078;BME280;22989;55.998;37.212;2023-04-22T12:30:17;-11298.94;;;-145.39;25.35
37078;BME280;22989;55.998;37.212;2023-04-22T12:32:43;-11298.94;;;-145.39;25.42